sensor_id;sensor_type;location;lat;lon;timestamp;P1;durP1;ratioP1;P2;durP2;ratioP2
65377;SDS011;51982;51.042;13.806;2023-05-07T05:05:25;12.90;;;7.35;;
65377;SDS011;51982;51.042;13.806;2023-05-07T05:07:50;13.50;;;7.38;;
65377;SDS011;51982;51.042;13.806;2023-05-07T05:10:16;13.93;;;7.43;;
65377;SDS011;51982;51.042;13.806;2023-05-07T05:12:42;12.50;;;7.43;;
65377;SDS011;51982;51.042;13.806;2023-05-07T05:15:07;12.77;;;7.40;;
65377;SDS011;51982;51.042;13.806;2023-05-07T05:17:33;13.07;;;8.02;;
65377;SDS011;51982;51.042;13.806;2023-05-07T05:19:59;12.77;;;7.28;;
65377;SDS011;51982;51.042;13.806;2023-05-07T05:22:25;12.00;;;7.40;;
65377;SDS011;51982;51.042;13.806;2023-05-07T05:24:50;11.63;;;6.80;;
65377;SDS011;51982;51.042;13.806;2023-05-07T05:27:15;10.68;;;6.55;;
65377;SDS011;51982;51.042;13.806;2023-05-07T05:29:41;11.30;;;6.60;;
65377;SDS011;51982;51.042;13.806;2023-05-07T05:32:06;10.53;;;6.57;;
65377;SDS011;51982;51.042;13.806;2023-05-07T05:34:31;12.63;;;7.07;;
65377;SDS011;51982;51.042;13.806;2023-05-07T05:36:58;9.70;;;6.10;;
65377;SDS011;51982;51.042;13.806;2023-05-07T05:39:24;8.95;;;5.43;;
65377;SDS011;51982;51.042;13.806;2023-05-07T05:41:49;9.65;;;5.82;;
65377;SDS011;51982;51.042;13.806;2023-05-07T05:44:14;9.05;;;5.35;;
65377;SDS011;51982;51.042;13.806;2023-05-07T05:46:39;9.57;;;6.15;;
65377;SDS011;51982;51.042;13.806;2023-05-07T05:49:05;8.50;;;5.15;;
65377;SDS011;51982;51.042;13.806;2023-05-07T05:51:30;8.73;;;4.60;;
65377;SDS011;51982;51.042;13.806;2023-05-07T05:53:55;9.15;;;4.93;;
65377;SDS011;51982;51.042;13.806;2023-05-07T05:56:21;7.00;;;4.30;;
65377;SDS011;51982;51.042;13.806;2023-05-07T05:58:46;8.18;;;4.88;;
65377;SDS011;51982;51.042;13.806;2023-05-07T06:01:11;9.23;;;5.07;;
65377;SDS011;51982;51.042;13.806;2023-05-07T06:03:37;6.50;;;4.35;;
65377;SDS011;51982;51.042;13.806;2023-05-07T06:06:02;6.80;;;4.55;;
65377;SDS011;51982;51.042;13.806;2023-05-07T06:08:30;10.73;;;4.78;;
65377;SDS011;51982;51.042;13.806;2023-05-07T06:10:56;6.90;;;4.07;;
65377;SDS011;51982;51.042;13.806;2023-05-07T06:13:22;8.52;;;4.75;;
65377;SDS011;51982;51.042;13.806;2023-05-07T06:15:48;7.88;;;4.82;;
65377;SDS011;51982;51.042;13.806;2023-05-07T06:18:14;9.10;;;4.88;;
65377;SDS011;51982;51.042;13.806;2023-05-07T06:20:39;8.87;;;4.87;;
65377;SDS011;51982;51.042;13.806;2023-05-07T06:23:04;7.30;;;4.38;;
65377;SDS011;51982;51.042;13.806;2023-05-07T06:25:30;6.37;;;4.10;;
65377;SDS011;51982;51.042;13.806;2023-05-07T06:27:55;6.23;;;3.87;;
65377;SDS011;51982;51.042;13.806;2023-05-07T06:30:20;7.17;;;3.87;;
65377;SDS011;51982;51.042;13.806;2023-05-07T06:32:45;7.72;;;4.78;;
65377;SDS011;51982;51.042;13.806;2023-05-07T06:35:10;5.60;;;3.50;;
65377;SDS011;51982;51.042;13.806;2023-05-07T06:37:36;5.67;;;3.80;;
65377;SDS011;51982;51.042;13.806;2023-05-07T06:40:03;7.20;;;3.90;;
65377;SDS011;51982;51.042;13.806;2023-05-07T06:42:29;5.07;;;3.42;;
65377;SDS011;51982;51.042;13.806;2023-05-07T06:44:55;7.47;;;4.50;;
65377;SDS011;51982;51.042;13.806;2023-05-07T06:47:20;7.50;;;4.03;;
65377;SDS011;51982;51.042;13.806;2023-05-07T06:49:45;7.45;;;4.35;;
65377;SDS011;51982;51.042;13.806;2023-05-07T06:52:10;7.90;;;4.80;;
65377;SDS011;51982;51.042;13.806;2023-05-07T06:54:35;7.23;;;4.63;;
65377;SDS011;51982;51.042;13.806;2023-05-07T06:57:01;6.70;;;4.60;;
65377;SDS011;51982;51.042;13.806;2023-05-07T06:59:26;6.70;;;4.80;;
65377;SDS011;51982;51.042;13.806;2023-05-07T07:01:51;8.53;;;5.03;;
65377;SDS011;51982;51.042;13.806;2023-05-07T07:04:16;7.37;;;4.73;;
65377;SDS011;51982;51.042;13.806;2023-05-07T07:06:42;8.20;;;4.57;;
65377;SDS011;51982;51.042;13.806;2023-05-07T07:09:07;5.05;;;2.92;;
65377;SDS011;51982;51.042;13.806;2023-05-07T07:11:32;6.07;;;4.53;;
65377;SDS011;51982;51.042;13.806;2023-05-07T07:13:57;6.68;;;4.05;;
65377;SDS011;51982;51.042;13.806;2023-05-07T07:16:23;6.35;;;4.20;;
65377;SDS011;51982;51.042;13.806;2023-05-07T07:18:49;6.75;;;3.83;;
65377;SDS011;51982;51.042;13.806;2023-05-07T07:21:14;5.03;;;3.72;;
65377;SDS011;51982;51.042;13.806;2023-05-07T07:23:39;5.07;;;3.47;;
65377;SDS011;51982;51.042;13.806;2023-05-07T07:26:05;5.97;;;3.58;;
65377;SDS011;51982;51.042;13.806;2023-05-07T07:28:31;6.05;;;3.50;;
65377;SDS011;51982;51.042;13.806;2023-05-07T07:30:56;6.72;;;3.80;;
65377;SDS011;51982;51.042;13.806;2023-05-07T07:33:22;5.40;;;3.30;;
65377;SDS011;51982;51.042;13.806;2023-05-07T07:35:47;4.93;;;3.20;;
65377;SDS011;51982;51.042;13.806;2023-05-07T07:38:12;4.78;;;3.22;;
65377;SDS011;51982;51.042;13.806;2023-05-07T07:40:37;5.80;;;3.33;;
65377;SDS011;51982;51.042;13.806;2023-05-07T07:43:04;4.60;;;2.88;;
65377;SDS011;51982;51.042;13.806;2023-05-07T07:45:29;5.65;;;2.60;;
65377;SDS011;51982;51.042;13.806;2023-05-07T07:47:55;4.47;;;2.67;;
65377;SDS011;51982;51.042;13.806;2023-05-07T07:50:20;7.38;;;2.85;;
65377;SDS011;51982;51.042;13.806;2023-05-07T07:52:48;4.40;;;2.72;;
65377;SDS011;51982;51.042;13.806;2023-05-07T07:55:13;4.68;;;2.55;;
65377;SDS011;51982;51.042;13.806;2023-05-07T07:57:42;6.32;;;3.30;;
65377;SDS011;51982;51.042;13.806;2023-05-07T08:00:08;5.30;;;2.70;;
65377;SDS011;51982;51.042;13.806;2023-05-07T08:02:34;3.50;;;2.78;;
65377;SDS011;51982;51.042;13.806;2023-05-07T08:04:59;3.67;;;2.78;;
65377;SDS011;51982;51.042;13.806;2023-05-07T08:07:24;3.85;;;2.50;;
65377;SDS011;51982;51.042;13.806;2023-05-07T08:09:50;8.10;;;3.10;;
65377;SDS011;51982;51.042;13.806;2023-05-07T08:12:15;3.45;;;2.45;;
65377;SDS011;51982;51.042;13.806;2023-05-07T08:14:40;4.07;;;2.90;;
65377;SDS011;51982;51.042;13.806;2023-05-07T08:17:08;4.97;;;2.97;;
65377;SDS011;51982;51.042;13.806;2023-05-07T08:19:35;3.72;;;2.55;;
65377;SDS011;51982;51.042;13.806;2023-05-07T08:22:00;3.67;;;2.55;;
65377;SDS011;51982;51.042;13.806;2023-05-07T08:24:25;5.17;;;3.10;;
65377;SDS011;51982;51.042;13.806;2023-05-07T08:26:51;3.33;;;2.60;;
65377;SDS011;51982;51.042;13.806;2023-05-07T08:29:16;2.87;;;2.57;;
65377;SDS011;51982;51.042;13.806;2023-05-07T08:31:41;3.33;;;2.47;;
65377;SDS011;51982;51.042;13.806;2023-05-07T08:34:06;4.00;;;2.70;;
65377;SDS011;51982;51.042;13.806;2023-05-07T08:36:32;4.97;;;2.60;;
65377;SDS011;51982;51.042;13.806;2023-05-07T08:38:57;3.20;;;2.60;;
65377;SDS011;51982;51.042;13.806;2023-05-07T08:41:22;4.13;;;3.00;;
65377;SDS011;51982;51.042;13.806;2023-05-07T08:43:48;4.05;;;3.10;;
65377;SDS011;51982;51.042;13.806;2023-05-07T08:46:19;4.53;;;3.20;;
65377;SDS011;51982;51.042;13.806;2023-05-07T08:48:48;6.45;;;3.45;;
65377;SDS011;51982;51.042;13.806;2023-05-07T08:51:18;5.13;;;3.28;;
65377;SDS011;51982;51.042;13.806;2023-05-07T08:53:45;4.43;;;3.08;;
65377;SDS011;51982;51.042;13.806;2023-05-07T08:56:13;6.65;;;3.70;;
65377;SDS011;51982;51.042;13.806;2023-05-07T08:58:40;7.50;;;3.70;;
65377;SDS011;51982;51.042;13.806;2023-05-07T09:01:09;6.28;;;4.00;;
65377;SDS011;51982;51.042;13.806;2023-05-07T09:03:41;7.40;;;3.90;;
65377;SDS011;51982;51.042;13.806;2023-05-07T09:06:11;6.28;;;3.40;;
65377;SDS011;51982;51.042;13.806;2023-05-07T09:08:37;6.13;;;3.85;;
65377;SDS011;51982;51.042;13.806;2023-05-07T09:11:02;5.88;;;3.60;;
65377;SDS011;51982;51.042;13.806;2023-05-07T09:13:27;5.15;;;3.97;;
65377;SDS011;51982;51.042;13.806;2023-05-07T09:15:53;4.95;;;3.13;;
65377;SDS011;51982;51.042;13.806;2023-05-07T09:18:18;9.40;;;4.40;;
65377;SDS011;51982;51.042;13.806;2023-05-07T09:20:45;8.52;;;3.95;;
65377;SDS011;51982;51.042;13.806;2023-05-07T09:23:10;5.97;;;4.05;;
65377;SDS011;51982;51.042;13.806;2023-05-07T09:25:37;6.10;;;3.90;;
65377;SDS011;51982;51.042;13.806;2023-05-07T09:28:03;6.55;;;3.90;;
65377;SDS011;51982;51.042;13.806;2023-05-07T09:30:31;5.95;;;4.18;;
65377;SDS011;51982;51.042;13.806;2023-05-07T09:33:00;5.82;;;4.30;;
65377;SDS011;51982;51.042;13.806;2023-05-07T09:35:26;6.30;;;3.85;;
65377;SDS011;51982;51.042;13.806;2023-05-07T09:37:52;5.43;;;3.97;;
65377;SDS011;51982;51.042;13.806;2023-05-07T09:42:47;5.40;;;3.67;;
65377;SDS011;51982;51.042;13.806;2023-05-07T09:45:14;5.35;;;3.92;;
65377;SDS011;51982;51.042;13.806;2023-05-07T09:47:39;5.18;;;3.42;;
65377;SDS011;51982;51.042;13.806;2023-05-07T09:50:09;5.35;;;3.60;;
65377;SDS011;51982;51.042;13.806;2023-05-07T09:52:36;5.10;;;3.50;;
65377;SDS011;51982;51.042;13.806;2023-05-07T09:55:02;5.57;;;3.63;;
65377;SDS011;51982;51.042;13.806;2023-05-07T09:57:27;5.53;;;3.80;;
65377;SDS011;51982;51.042;13.806;2023-05-07T09:59:55;5.47;;;4.18;;
65377;SDS011;51982;51.042;13.806;2023-05-07T10:02:22;7.90;;;4.93;;
65377;SDS011;51982;51.042;13.806;2023-05-07T10:04:50;7.10;;;4.07;;
65377;SDS011;51982;51.042;13.806;2023-05-07T10:07:16;7.45;;;5.10;;
65377;SDS011;51982;51.042;13.806;2023-05-07T10:09:42;6.50;;;4.45;;
65377;SDS011;51982;51.042;13.806;2023-05-07T10:12:09;8.13;;;4.55;;
65377;SDS011;51982;51.042;13.806;2023-05-07T10:14:34;5.63;;;3.90;;
65377;SDS011;51982;51.042;13.806;2023-05-07T10:17:00;9.98;;;6.80;;
65377;SDS011;51982;51.042;13.806;2023-05-07T10:19:27;5.57;;;4.43;;
65377;SDS011;51982;51.042;13.806;2023-05-07T10:21:55;4.40;;;3.65;;
65377;SDS011;51982;51.042;13.806;2023-05-07T10:24:33;7.20;;;4.97;;
65377;SDS011;51982;51.042;13.806;2023-05-07T10:27:01;6.10;;;4.28;;
65377;SDS011;51982;51.042;13.806;2023-05-07T10:29:32;3.50;;;2.85;;
65377;SDS011;51982;51.042;13.806;2023-05-07T10:37:03;6.47;;;4.70;;
65377;SDS011;51982;51.042;13.806;2023-05-07T10:39:29;5.63;;;4.15;;
65377;SDS011;51982;51.042;13.806;2023-05-07T10:41:55;8.02;;;4.53;;
65377;SDS011;51982;51.042;13.806;2023-05-07T10:44:27;6.13;;;4.15;;
65377;SDS011;51982;51.042;13.806;2023-05-07T10:54:40;4.55;;;3.70;;
65377;SDS011;51982;51.042;13.806;2023-05-07T11:05:27;6.15;;;3.45;;
65377;SDS011;51982;51.042;13.806;2023-05-07T11:07:54;4.65;;;3.60;;
65377;SDS011;51982;51.042;13.806;2023-05-07T11:10:20;4.93;;;3.42;;
65377;SDS011;51982;51.042;13.806;2023-05-07T11:12:46;8.38;;;3.67;;
65377;SDS011;51982;51.042;13.806;2023-05-07T11:15:13;4.10;;;3.25;;
65377;SDS011;51982;51.042;13.806;2023-05-07T11:17:56;4.60;;;3.13;;
65377;SDS011;51982;51.042;13.806;2023-05-07T11:26:07;5.00;;;3.28;;
65377;SDS011;51982;51.042;13.806;2023-05-07T11:28:40;4.32;;;3.28;;
65377;SDS011;51982;51.042;13.806;2023-05-07T11:31:07;7.93;;;5.70;;
65377;SDS011;51982;51.042;13.806;2023-05-07T11:33:33;4.63;;;3.33;;
65377;SDS011;51982;51.042;13.806;2023-05-07T11:36:02;4.50;;;3.40;;
65377;SDS011;51982;51.042;13.806;2023-05-07T11:38:35;5.38;;;3.45;;
65377;SDS011;51982;51.042;13.806;2023-05-07T11:41:02;5.80;;;4.30;;
65377;SDS011;51982;51.042;13.806;2023-05-07T11:43:29;4.70;;;3.72;;
65377;SDS011;51982;51.042;13.806;2023-05-07T11:45:55;7.78;;;3.70;;
65377;SDS011;51982;51.042;13.806;2023-05-07T11:48:30;5.03;;;3.70;;
65377;SDS011;51982;51.042;13.806;2023-05-07T11:51:00;8.45;;;4.10;;
65377;SDS011;51982;51.042;13.806;2023-05-07T11:53:27;5.50;;;3.90;;
65377;SDS011;51982;51.042;13.806;2023-05-07T11:55:53;5.18;;;3.83;;
65377;SDS011;51982;51.042;13.806;2023-05-07T11:58:21;4.88;;;3.53;;
65377;SDS011;51982;51.042;13.806;2023-05-07T12:00:53;4.30;;;3.38;;
65377;SDS011;51982;51.042;13.806;2023-05-07T12:03:19;4.93;;;3.88;;
65377;SDS011;51982;51.042;13.806;2023-05-07T12:05:45;6.55;;;4.03;;
65377;SDS011;51982;51.042;13.806;2023-05-07T12:08:14;4.93;;;3.50;;
65377;SDS011;51982;51.042;13.806;2023-05-07T12:10:43;4.63;;;3.70;;
65377;SDS011;51982;51.042;13.806;2023-05-07T12:13:19;5.18;;;3.50;;
65377;SDS011;51982;51.042;13.806;2023-05-07T12:15:46;4.53;;;3.78;;
65377;SDS011;51982;51.042;13.806;2023-05-07T12:18:11;4.78;;;3.35;;
65377;SDS011;51982;51.042;13.806;2023-05-07T12:20:37;4.63;;;3.47;;
65377;SDS011;51982;51.042;13.806;2023-05-07T12:23:03;4.50;;;3.03;;
65377;SDS011;51982;51.042;13.806;2023-05-07T12:25:33;5.45;;;3.65;;
65377;SDS011;51982;51.042;13.806;2023-05-07T12:28:00;7.78;;;3.55;;
65377;SDS011;51982;51.042;13.806;2023-05-07T12:30:26;5.38;;;3.50;;
65377;SDS011;51982;51.042;13.806;2023-05-07T12:32:52;5.13;;;3.50;;
65377;SDS011;51982;51.042;13.806;2023-05-07T12:35:25;3.33;;;2.78;;
65377;SDS011;51982;51.042;13.806;2023-05-07T12:37:58;4.07;;;3.00;;
65377;SDS011;51982;51.042;13.806;2023-05-07T12:40:34;4.32;;;3.35;;
65377;SDS011;51982;51.042;13.806;2023-05-07T12:43:00;3.85;;;3.00;;
65377;SDS011;51982;51.042;13.806;2023-05-07T12:45:25;3.63;;;2.67;;
65377;SDS011;51982;51.042;13.806;2023-05-07T12:47:51;3.83;;;3.20;;
65377;SDS011;51982;51.042;13.806;2023-05-07T12:50:16;4.07;;;3.17;;
65377;SDS011;51982;51.042;13.806;2023-05-07T12:52:42;4.35;;;3.42;;
65377;SDS011;51982;51.042;13.806;2023-05-07T12:55:15;4.18;;;3.25;;
65377;SDS011;51982;51.042;13.806;2023-05-07T12:57:45;6.90;;;3.28;;
65377;SDS011;51982;51.042;13.806;2023-05-07T13:00:13;2.88;;;2.25;;
65377;SDS011;51982;51.042;13.806;2023-05-07T13:02:39;3.85;;;3.13;;
65377;SDS011;51982;51.042;13.806;2023-05-07T13:05:06;4.78;;;3.60;;
65377;SDS011;51982;51.042;13.806;2023-05-07T13:07:32;5.63;;;2.50;;
65377;SDS011;51982;51.042;13.806;2023-05-07T13:09:57;4.38;;;3.08;;
65377;SDS011;51982;51.042;13.806;2023-05-07T13:12:23;3.03;;;2.67;;
65377;SDS011;51982;51.042;13.806;2023-05-07T13:14:48;2.70;;;2.33;;
65377;SDS011;51982;51.042;13.806;2023-05-07T13:17:13;4.20;;;2.90;;
65377;SDS011;51982;51.042;13.806;2023-05-07T13:19:38;3.90;;;2.83;;
65377;SDS011;51982;51.042;13.806;2023-05-07T13:22:04;5.22;;;3.65;;
65377;SDS011;51982;51.042;13.806;2023-05-07T13:24:29;3.28;;;2.72;;
65377;SDS011;51982;51.042;13.806;2023-05-07T13:26:54;3.87;;;2.90;;
65377;SDS011;51982;51.042;13.806;2023-05-07T13:29:20;4.25;;;2.92;;
65377;SDS011;51982;51.042;13.806;2023-05-07T13:31:50;4.38;;;2.75;;
65377;SDS011;51982;51.042;13.806;2023-05-07T13:34:15;4.35;;;3.00;;
65377;SDS011;51982;51.042;13.806;2023-05-07T13:36:40;3.63;;;2.88;;
65377;SDS011;51982;51.042;13.806;2023-05-07T13:39:06;4.45;;;2.15;;
65377;SDS011;51982;51.042;13.806;2023-05-07T13:41:32;3.63;;;2.72;;
65377;SDS011;51982;51.042;13.806;2023-05-07T13:43:57;5.23;;;3.00;;
65377;SDS011;51982;51.042;13.806;2023-05-07T13:46:22;3.37;;;2.43;;
65377;SDS011;51982;51.042;13.806;2023-05-07T13:48:47;3.87;;;3.13;;
65377;SDS011;51982;51.042;13.806;2023-05-07T13:51:13;4.55;;;2.45;;
65377;SDS011;51982;51.042;13.806;2023-05-07T13:53:38;3.90;;;2.60;;
65377;SDS011;51982;51.042;13.806;2023-05-07T13:56:03;4.00;;;2.70;;
65377;SDS011;51982;51.042;13.806;2023-05-07T13:58:29;3.78;;;2.70;;
65377;SDS011;51982;51.042;13.806;2023-05-07T14:00:55;2.75;;;2.45;;
65377;SDS011;51982;51.042;13.806;2023-05-07T14:03:20;3.35;;;2.45;;
65377;SDS011;51982;51.042;13.806;2023-05-07T14:05:45;2.80;;;2.10;;
65377;SDS011;51982;51.042;13.806;2023-05-07T14:08:11;2.60;;;1.90;;
65377;SDS011;51982;51.042;13.806;2023-05-07T14:10:38;3.20;;;2.58;;
65377;SDS011;51982;51.042;13.806;2023-05-07T14:13:03;3.10;;;2.20;;
65377;SDS011;51982;51.042;13.806;2023-05-07T14:15:29;3.22;;;2.17;;
65377;SDS011;51982;51.042;13.806;2023-05-07T14:17:54;4.53;;;2.10;;
65377;SDS011;51982;51.042;13.806;2023-05-07T14:20:20;2.90;;;2.10;;
65377;SDS011;51982;51.042;13.806;2023-05-07T14:22:45;7.22;;;2.05;;
65377;SDS011;51982;51.042;13.806;2023-05-07T14:25:10;2.50;;;1.98;;
65377;SDS011;51982;51.042;13.806;2023-05-07T14:27:35;2.67;;;2.03;;
65377;SDS011;51982;51.042;13.806;2023-05-07T14:30:01;1.75;;;1.35;;
65377;SDS011;51982;51.042;13.806;2023-05-07T14:32:26;3.17;;;1.98;;
65377;SDS011;51982;51.042;13.806;2023-05-07T14:34:51;3.63;;;1.98;;
65377;SDS011;51982;51.042;13.806;2023-05-07T14:37:17;4.85;;;1.80;;
65377;SDS011;51982;51.042;13.806;2023-05-07T14:39:44;2.97;;;2.10;;
65377;SDS011;51982;51.042;13.806;2023-05-07T14:42:09;1.90;;;1.63;;
65377;SDS011;51982;51.042;13.806;2023-05-07T14:44:36;5.50;;;2.15;;
65377;SDS011;51982;51.042;13.806;2023-05-07T14:47:01;2.50;;;2.17;;
65377;SDS011;51982;51.042;13.806;2023-05-07T14:49:26;2.53;;;2.00;;
65377;SDS011;51982;51.042;13.806;2023-05-07T14:51:52;2.73;;;2.27;;
65377;SDS011;51982;51.042;13.806;2023-05-07T14:54:17;3.50;;;2.80;;
65377;SDS011;51982;51.042;13.806;2023-05-07T14:56:42;3.77;;;2.50;;
65377;SDS011;51982;51.042;13.806;2023-05-07T14:59:08;4.13;;;2.60;;
65377;SDS011;51982;51.042;13.806;2023-05-07T15:01:34;3.05;;;2.28;;
65377;SDS011;51982;51.042;13.806;2023-05-07T15:04:00;3.60;;;2.80;;
65377;SDS011;51982;51.042;13.806;2023-05-07T15:06:25;3.25;;;2.60;;
65377;SDS011;51982;51.042;13.806;2023-05-07T15:08:51;4.05;;;2.80;;
65377;SDS011;51982;51.042;13.806;2023-05-07T15:11:17;3.88;;;2.17;;
65377;SDS011;51982;51.042;13.806;2023-05-07T15:13:42;2.42;;;1.90;;
65377;SDS011;51982;51.042;13.806;2023-05-07T15:16:07;4.10;;;2.67;;
65377;SDS011;51982;51.042;13.806;2023-05-07T15:18:32;5.43;;;3.55;;
65377;SDS011;51982;51.042;13.806;2023-05-07T15:20:58;6.23;;;3.20;;
65377;SDS011;51982;51.042;13.806;2023-05-07T15:23:23;6.53;;;3.92;;
65377;SDS011;51982;51.042;13.806;2023-05-07T15:25:48;4.65;;;3.40;;
65377;SDS011;51982;51.042;13.806;2023-05-07T15:28:13;3.77;;;2.60;;
65377;SDS011;51982;51.042;13.806;2023-05-07T15:30:39;4.30;;;2.25;;
65377;SDS011;51982;51.042;13.806;2023-05-07T15:33:04;4.67;;;2.87;;
65377;SDS011;51982;51.042;13.806;2023-05-07T15:35:30;5.45;;;3.25;;
65377;SDS011;51982;51.042;13.806;2023-05-07T15:37:55;3.85;;;2.55;;
65377;SDS011;51982;51.042;13.806;2023-05-07T15:40:20;6.70;;;3.10;;
65377;SDS011;51982;51.042;13.806;2023-05-07T15:42:46;4.93;;;2.83;;
65377;SDS011;51982;51.042;13.806;2023-05-07T15:45:11;5.93;;;3.40;;
65377;SDS011;51982;51.042;13.806;2023-05-07T15:47:37;4.00;;;2.97;;
65377;SDS011;51982;51.042;13.806;2023-05-07T15:50:02;5.30;;;3.40;;
65377;SDS011;51982;51.042;13.806;2023-05-07T15:52:28;5.15;;;2.75;;
65377;SDS011;51982;51.042;13.806;2023-05-07T15:54:54;3.72;;;3.00;;
65377;SDS011;51982;51.042;13.806;2023-05-07T15:57:23;3.85;;;2.45;;
65377;SDS011;51982;51.042;13.806;2023-05-07T15:59:48;3.20;;;2.33;;
65377;SDS011;51982;51.042;13.806;2023-05-07T16:02:14;5.15;;;2.67;;
65377;SDS011;51982;51.042;13.806;2023-05-07T16:04:39;4.38;;;3.45;;
65377;SDS011;51982;51.042;13.806;2023-05-07T16:07:05;4.22;;;3.10;;
65377;SDS011;51982;51.042;13.806;2023-05-07T16:09:31;3.35;;;2.67;;
65377;SDS011;51982;51.042;13.806;2023-05-07T16:11:56;4.55;;;3.30;;
65377;SDS011;51982;51.042;13.806;2023-05-07T16:14:22;3.40;;;2.80;;
65377;SDS011;51982;51.042;13.806;2023-05-07T16:16:48;3.95;;;2.67;;
65377;SDS011;51982;51.042;13.806;2023-05-07T16:19:13;4.30;;;3.03;;
65377;SDS011;51982;51.042;13.806;2023-05-07T16:21:39;4.88;;;3.50;;
65377;SDS011;51982;51.042;13.806;2023-05-07T16:24:04;4.28;;;2.90;;
65377;SDS011;51982;51.042;13.806;2023-05-07T16:26:30;4.22;;;3.22;;
65377;SDS011;51982;51.042;13.806;2023-05-07T16:28:55;4.65;;;2.95;;
65377;SDS011;51982;51.042;13.806;2023-05-07T16:31:23;3.85;;;2.30;;
65377;SDS011;51982;51.042;13.806;2023-05-07T16:33:49;4.45;;;3.60;;
65377;SDS011;51982;51.042;13.806;2023-05-07T16:36:15;6.65;;;2.50;;
65377;SDS011;51982;51.042;13.806;2023-05-07T16:38:40;5.45;;;3.80;;
65377;SDS011;51982;51.042;13.806;2023-05-07T16:41:05;5.75;;;3.60;;
65377;SDS011;51982;51.042;13.806;2023-05-07T16:43:31;4.43;;;2.75;;
65377;SDS011;51982;51.042;13.806;2023-05-07T16:45:56;3.97;;;2.87;;
65377;SDS011;51982;51.042;13.806;2023-05-07T16:48:21;4.82;;;2.95;;
65377;SDS011;51982;51.042;13.806;2023-05-07T16:50:46;6.43;;;3.58;;
65377;SDS011;51982;51.042;13.806;2023-05-07T16:53:12;5.68;;;3.33;;
65377;SDS011;51982;51.042;13.806;2023-05-07T16:55:37;5.35;;;3.17;;
65377;SDS011;51982;51.042;13.806;2023-05-07T16:58:06;4.10;;;3.33;;
65377;SDS011;51982;51.042;13.806;2023-05-07T17:00:33;4.28;;;3.20;;
65377;SDS011;51982;51.042;13.806;2023-05-07T17:02:59;4.90;;;3.22;;
65377;SDS011;51982;51.042;13.806;2023-05-07T17:05:24;4.05;;;3.13;;
65377;SDS011;51982;51.042;13.806;2023-05-07T17:07:49;4.22;;;3.45;;
65377;SDS011;51982;51.042;13.806;2023-05-07T17:10:15;5.50;;;3.47;;
65377;SDS011;51982;51.042;13.806;2023-05-07T17:12:41;8.38;;;3.38;;
65377;SDS011;51982;51.042;13.806;2023-05-07T17:15:06;3.83;;;2.70;;
65377;SDS011;51982;51.042;13.806;2023-05-07T17:17:32;5.05;;;3.60;;
65377;SDS011;51982;51.042;13.806;2023-05-07T17:19:57;6.50;;;3.58;;
65377;SDS011;51982;51.042;13.806;2023-05-07T17:22:23;5.13;;;3.53;;
65377;SDS011;51982;51.042;13.806;2023-05-07T17:24:49;5.70;;;3.75;;
65377;SDS011;51982;51.042;13.806;2023-05-07T17:27:14;4.50;;;2.88;;
65377;SDS011;51982;51.042;13.806;2023-05-07T17:29:39;6.43;;;3.28;;
65377;SDS011;51982;51.042;13.806;2023-05-07T17:32:05;4.80;;;3.03;;
65377;SDS011;51982;51.042;13.806;2023-05-07T17:34:30;4.00;;;3.00;;
65377;SDS011;51982;51.042;13.806;2023-05-07T17:36:56;4.80;;;3.20;;
65377;SDS011;51982;51.042;13.806;2023-05-07T17:39:22;2.50;;;1.90;;
65377;SDS011;51982;51.042;13.806;2023-05-07T17:41:47;6.00;;;2.65;;
65377;SDS011;51982;51.042;13.806;2023-05-07T17:44:13;4.60;;;3.17;;
65377;SDS011;51982;51.042;13.806;2023-05-07T17:46:38;4.80;;;3.20;;
65377;SDS011;51982;51.042;13.806;2023-05-07T17:49:03;4.63;;;2.70;;
65377;SDS011;51982;51.042;13.806;2023-05-07T17:51:29;4.03;;;3.00;;
65377;SDS011;51982;51.042;13.806;2023-05-07T17:53:54;3.58;;;2.80;;
65377;SDS011;51982;51.042;13.806;2023-05-07T17:56:20;3.72;;;2.83;;
65377;SDS011;51982;51.042;13.806;2023-05-07T17:58:46;4.97;;;3.10;;
65377;SDS011;51982;51.042;13.806;2023-05-07T18:01:12;6.13;;;3.47;;
65377;SDS011;51982;51.042;13.806;2023-05-07T18:03:39;4.60;;;3.67;;
65377;SDS011;51982;51.042;13.806;2023-05-07T18:06:05;6.07;;;3.55;;
65377;SDS011;51982;51.042;13.806;2023-05-07T18:08:30;3.20;;;2.70;;
65377;SDS011;51982;51.042;13.806;2023-05-07T18:10:55;4.28;;;3.25;;
65377;SDS011;51982;51.042;13.806;2023-05-07T18:13:21;7.47;;;3.65;;
65377;SDS011;51982;51.042;13.806;2023-05-07T18:15:46;5.00;;;3.70;;
65377;SDS011;51982;51.042;13.806;2023-05-07T18:18:11;5.38;;;2.97;;
65377;SDS011;51982;51.042;13.806;2023-05-07T18:20:37;4.85;;;3.20;;
65377;SDS011;51982;51.042;13.806;2023-05-07T18:23:02;5.18;;;3.83;;
65377;SDS011;51982;51.042;13.806;2023-05-07T18:25:28;5.80;;;4.00;;
65377;SDS011;51982;51.042;13.806;2023-05-07T18:27:53;5.25;;;3.97;;
65377;SDS011;51982;51.042;13.806;2023-05-07T18:30:19;5.37;;;3.73;;
65377;SDS011;51982;51.042;13.806;2023-05-07T18:32:44;4.15;;;3.10;;
65377;SDS011;51982;51.042;13.806;2023-05-07T18:35:09;5.53;;;4.00;;
65377;SDS011;51982;51.042;13.806;2023-05-07T18:37:34;7.10;;;4.25;;
65377;SDS011;51982;51.042;13.806;2023-05-07T18:40:00;5.35;;;3.85;;
65377;SDS011;51982;51.042;13.806;2023-05-07T18:42:27;7.50;;;4.18;;
65377;SDS011;51982;51.042;13.806;2023-05-07T18:44:53;6.82;;;4.30;;
65377;SDS011;51982;51.042;13.806;2023-05-07T18:47:18;6.32;;;4.07;;
65377;SDS011;51982;51.042;13.806;2023-05-07T18:49:44;5.25;;;3.90;;
65377;SDS011;51982;51.042;13.806;2023-05-07T18:52:09;5.75;;;4.45;;
65377;SDS011;51982;51.042;13.806;2023-05-07T18:54:34;5.60;;;4.43;;
65377;SDS011;51982;51.042;13.806;2023-05-07T18:56:59;6.00;;;4.20;;
65377;SDS011;51982;51.042;13.806;2023-05-07T18:59:25;5.13;;;3.92;;
65377;SDS011;51982;51.042;13.806;2023-05-07T19:01:50;5.60;;;4.40;;
65377;SDS011;51982;51.042;13.806;2023-05-07T19:04:15;6.45;;;4.55;;
65377;SDS011;51982;51.042;13.806;2023-05-07T19:06:41;5.55;;;4.15;;
65377;SDS011;51982;51.042;13.806;2023-05-07T19:09:07;5.70;;;4.38;;
65377;SDS011;51982;51.042;13.806;2023-05-07T19:11:32;8.88;;;3.92;;
65377;SDS011;51982;51.042;13.806;2023-05-07T19:13:57;7.73;;;4.33;;
65377;SDS011;51982;51.042;13.806;2023-05-07T19:16:23;5.32;;;3.95;;
65377;SDS011;51982;51.042;13.806;2023-05-07T19:18:48;5.55;;;4.18;;
65377;SDS011;51982;51.042;13.806;2023-05-07T19:21:13;5.50;;;4.27;;
65377;SDS011;51982;51.042;13.806;2023-05-07T19:23:38;5.07;;;3.90;;
65377;SDS011;51982;51.042;13.806;2023-05-07T19:26:07;6.30;;;4.35;;
65377;SDS011;51982;51.042;13.806;2023-05-07T19:28:34;6.63;;;4.10;;
65377;SDS011;51982;51.042;13.806;2023-05-07T19:30:59;5.25;;;4.20;;
65377;SDS011;51982;51.042;13.806;2023-05-07T19:33:24;6.13;;;4.65;;
65377;SDS011;51982;51.042;13.806;2023-05-07T19:35:50;7.93;;;4.35;;
65377;SDS011;51982;51.042;13.806;2023-05-07T19:38:17;5.80;;;4.43;;
65377;SDS011;51982;51.042;13.806;2023-05-07T19:40:43;5.88;;;4.40;;
65377;SDS011;51982;51.042;13.806;2023-05-07T19:43:08;5.17;;;4.00;;
65377;SDS011;51982;51.042;13.806;2023-05-07T19:45:33;6.82;;;4.40;;
65377;SDS011;51982;51.042;13.806;2023-05-07T19:47:59;5.35;;;4.05;;
65377;SDS011;51982;51.042;13.806;2023-05-07T19:50:24;6.05;;;4.07;;
65377;SDS011;51982;51.042;13.806;2023-05-07T19:52:49;6.95;;;4.60;;
65377;SDS011;51982;51.042;13.806;2023-05-07T19:55:15;5.50;;;4.07;;
65377;SDS011;51982;51.042;13.806;2023-05-07T19:57:40;5.38;;;3.95;;
65377;SDS011;51982;51.042;13.806;2023-05-07T20:00:05;5.20;;;4.00;;